Explore Kentucky Lake

Lake Conditions
Facebook Twitter Instagram YouTube Contact Us About Us
Switch Mobile/Desktop

Previous Lake Barkley Levels

Home | Lake Conditions | Previous Lake Barkley Levels

Lake Barkley Stages Over Last 48 Hours

The following table shows the previous 48 hours for Lake Barkley.

Date/Time Lake River Discharge (cfs)
3/21/2019 11 PM CDT 355.55' 332.85' 75,500
3/21/2019 10 PM CDT 355.50' 333.00' 74,500
3/21/2019 9 PM CDT 355.50' 333.20' 75,700
3/21/2019 8 PM CDT 355.35' 333.85' 77,400
3/21/2019 7 PM CDT 355.15' 334.15' 86,800
3/21/2019 6 PM CDT 355.45' 333.15' 74,800
3/21/2019 5 PM CDT 355.40' 333.20' 74,800
3/21/2019 4 PM CDT 355.40' 333.40' 74,800
3/21/2019 3 PM CDT 355.40' 333.70' 74,800
3/21/2019 2 PM CDT 355.40' 333.80' 83,900
3/21/2019 1 PM CDT 355.30' 334.40' 90,100
3/21/2019 12 PM CDT 355.35' 334.45' 90,100
3/21/2019 11 AM CDT 355.40' 334.50' 90,200
3/21/2019 10 AM CDT 355.45' 334.55' 90,200
3/21/2019 9 AM CDT 355.45' 334.65' 90,200
3/21/2019 8 AM CDT 355.40' 334.70' 90,200
3/21/2019 7 AM CDT 355.40' 334.70' 90,200
3/21/2019 6 AM CDT 355.40' 334.80' 90,200
3/21/2019 5 AM CDT 355.40' 334.80' 90,200
3/21/2019 4 AM CDT 355.40' 334.90' 90,200
3/21/2019 3 AM CDT 355.40' 334.90' 90,200
3/21/2019 2 AM CDT 355.40' 335.00' 90,200
3/21/2019 1 AM CDT 355.45' 335.05' 90,200
3/21/2019 12 AM CDT 355.45' 335.15' 90,200
3/20/2019 11 PM CDT 355.45' 335.25' 90,200
3/20/2019 10 PM CDT 355.50' 335.30' 90,500
3/20/2019 9 PM CDT 355.50' 335.40' 90,500
3/20/2019 8 PM CDT 355.50' 335.40' 90,500
3/20/2019 7 PM CDT 355.50' 335.40' 90,500
3/20/2019 6 PM CDT 355.50' 335.50' 90,500
3/20/2019 5 PM CDT 355.55' 335.65' 90,500
3/20/2019 4 PM CDT 355.55' 335.75' 90,500
3/20/2019 3 PM CDT 355.60' 335.80' 90,600
3/20/2019 2 PM CDT 355.60' 335.90' 90,600
3/20/2019 1 PM CDT 355.60' 336.10' 90,600
3/20/2019 12 PM CDT 355.60' 336.30' 90,600
3/20/2019 11 AM CDT 355.65' 336.35' 90,600
3/20/2019 10 AM CDT 355.55' 336.75' 97,800
3/20/2019 9 AM CDT 355.50' 337.00' 103,600
3/20/2019 8 AM CDT 355.50' 337.00' 103,600
3/20/2019 7 AM CDT 355.50' 337.10' 103,600
3/20/2019 6 AM CDT 355.50' 337.10' 103,600
3/20/2019 5 AM CDT 355.55' 337.05' 103,600
3/20/2019 4 AM CDT 355.60' 337.10' 103,600
3/20/2019 3 AM CDT 355.60' 337.20' 103,600
3/20/2019 2 AM CDT 355.65' 337.25' 104,000
3/20/2019 1 AM CDT 355.65' 337.25' 104,000

Down the River
Photo by Melodie Cunningham

This father-son team has found adventure out on the water at Kentucky Lake! There are so many places to explore in LBL that can't be accessed by land!